Time;durP1;ratioP1;P1;durP2;ratioP2;P2;SDS_P1;SDS_P2;PMS_P1;PMS_P2;Temp;Humidity;BMP_temperature;BMP_pressure;BME280_temperature;BME280_humidity;BME280_pressure;Samples;Min_cycle;Max_cycle;Signal;HPM_P1;HPM_P2
2021/03/07 00:01:03;;;;;;;6.25;2.05;;;;;;;1.08;75.73;99543.36;1804595;77;21028;-75
2021/03/07 00:03:30;;;;;;;8.20;2.15;;;;;;;1.06;75.74;99563.08;1809776;77;21208;-75
2021/03/07 00:05:57;;;;;;;3.92;1.60;;;;;;;1.05;75.88;99575.98;1798214;78;21068;-74
2021/03/07 00:08:24;;;;;;;7.85;1.95;;;;;;;1.03;76.05;99578.55;1803477;77;21848;-75
2021/03/07 00:10:51;;;;;;;4.70;1.65;;;;;;;1.02;76.09;99574.28;1806257;78;21079;-75
2021/03/07 00:13:18;;;;;;;4.78;2.05;;;;;;;1.02;76.39;99571.72;1810325;78;21048;-75
2021/03/07 00:15:45;;;;;;;5.80;1.60;;;;;;;1.01;76.04;99579.02;1809066;78;21170;-75
2021/03/07 00:18:12;;;;;;;4.83;2.05;;;;;;;1.00;76.31;99586.30;1804325;78;21092;-75
2021/03/07 00:20:39;;;;;;;6.28;1.55;;;;;;;0.97;76.44;99565.77;1801148;78;21269;-75
2021/03/07 00:23:06;;;;;;;5.92;1.45;;;;;;;0.95;76.44;99577.78;1806135;78;21087;-75
2021/03/07 00:25:33;;;;;;;3.87;1.67;;;;;;;0.91;76.93;99578.69;1807811;78;21288;-75
2021/03/07 00:28:00;;;;;;;6.15;1.72;;;;;;;0.89;76.70;99582.98;1798826;78;21783;-75
2021/03/07 00:30:27;;;;;;;3.42;1.47;;;;;;;0.87;76.91;99587.31;1805448;78;21195;-75
2021/03/07 00:32:55;;;;;;;10.72;1.90;;;;;;;0.85;76.92;99583.91;1805393;78;23480;-75
2021/03/07 00:35:22;;;;;;;5.15;1.40;;;;;;;0.83;77.16;99558.64;1803498;78;21937;-75
2021/03/07 00:40:36;;;;;;;4.72;1.62;;;;;;;0.79;76.88;99563.41;1701952;82;22268;-75
2021/03/07 00:43:03;;;;;;;4.95;1.95;;;;;;;0.80;76.85;99559.95;1707201;82;21166;-75
2021/03/07 00:45:31;;;;;;;5.30;1.67;;;;;;;0.81;76.81;99564.22;1707870;82;21216;-75
2021/03/07 00:47:58;;;;;;;5.85;2.12;;;;;;;0.82;76.90;99553.09;1705663;82;21219;-75
2021/03/07 00:50:26;;;;;;;5.12;1.60;;;;;;;0.80;76.93;99549.67;1720055;80;21667;-75
2021/03/07 00:53:15;;;;;;;5.35;1.95;;;;;;;0.78;77.18;99541.97;1719986;81;21772;-75
2021/03/07 00:56:06;;;;;;;4.72;1.80;;;;;;;0.76;77.43;99544.16;1601432;84;21242;-75
2021/03/07 00:58:42;;;;;;;4.83;2.10;;;;;;;0.77;77.23;99544.57;1796390;78;23099;-74
2021/03/07 01:01:09;;;;;;;4.20;1.80;;;;;;;0.69;77.21;99541.22;1775571;79;21151;-74
2021/03/07 01:03:36;;;;;;;4.47;1.65;;;;;;;0.64;77.50;99524.15;1772163;79;21202;-74
2021/03/07 01:06:03;;;;;;;4.37;1.42;;;;;;;0.62;77.42;99538.72;1768885;80;21046;-74
2021/03/07 01:08:30;;;;;;;;;;;;;;;0.61;77.30;99531.86;1768793;78;21001;-74
2021/03/07 01:10:57;;;;;;;3.27;1.52;;;;;;;0.59;77.83;99528.48;1770305;79;20538;-74
2021/03/07 01:13:27;;;;;;;5.28;1.60;;;;;;;0.57;77.62;99525.06;1767459;80;21235;-74
2021/03/07 01:15:54;;;;;;;6.67;2.05;;;;;;;0.55;77.92;99524.22;1768416;80;21636;-74
2021/03/07 01:18:21;;;;;;;4.67;1.35;;;;;;;0.54;77.75;99521.24;1767842;78;21084;-74
2021/03/07 01:20:54;;;;;;;9.80;2.00;;;;;;;0.53;78.45;99513.09;1770874;79;21094;-74
2021/03/07 01:23:22;;;;;;;5.85;1.65;;;;;;;0.53;77.99;99520.80;1772892;80;21252;-76
2021/03/07 01:25:50;;;;;;;5.40;2.70;;;;;;;0.52;77.84;99512.69;1770976;80;21603;-75
2021/03/07 01:28:17;;;;;;;4.25;1.35;;;;;;;0.53;77.85;99496.84;1768075;80;22187;-75
2021/03/07 01:30:44;;;;;;;3.75;1.82;;;;;;;0.52;77.92;99499.84;1755532;79;28267;-75
2021/03/07 01:33:15;;;;;;;;;;;;;;;0.50;77.96;99495.15;1772567;80;20968;-75
2021/03/07 01:35:43;;;;;;;2.83;0.90;;;;;;;0.49;78.48;99488.32;1770704;80;20199;-75
2021/03/07 01:38:10;;;;;;;5.10;1.50;;;;;;;0.47;78.76;99492.61;1767503;80;21143;-75
2021/03/07 01:43:28;;;;;;;4.53;1.87;;;;;;;0.49;78.47;99474.19;1776338;79;23337;-74
2021/03/07 01:45:56;;;;;;;7.67;1.92;;;;;;;0.44;78.33;99469.53;1740216;80;21625;-74
2021/03/07 01:48:23;;;;;;;6.10;1.98;;;;;;;0.44;78.62;99477.23;1749231;80;22391;-74
2021/03/07 01:50:53;;;;;;;5.78;1.67;;;;;;;0.43;78.59;99464.83;1746154;80;21052;-74
2021/03/07 01:53:22;;;;;;;7.55;1.67;;;;;;;0.43;78.53;99453.71;1749300;80;21219;-74
2021/03/07 01:55:53;;;;;;;6.00;1.60;;;;;;;0.45;78.90;99464.83;1743499;80;21656;-74
2021/03/07 01:58:29;;;;;;;3.25;1.30;;;;;;;0.44;78.99;99454.96;1744214;80;21048;-74
2021/03/07 02:01:00;;;;;;;4.47;1.62;;;;;;;0.42;79.49;99440.43;1747370;80;21279;-75
2021/03/07 02:03:28;;;;;;;5.65;1.98;;;;;;;0.39;79.15;99445.60;1742206;80;21037;-75
2021/03/07 02:05:55;;;;;;;5.28;1.95;;;;;;;0.38;79.10;99467.03;1741441;80;21700;-75
2021/03/07 02:08:24;;;;;;;10.10;1.52;;;;;;;0.38;79.21;99446.48;1741408;80;21217;-75
2021/03/07 02:10:59;;;;;;;8.35;1.80;;;;;;;0.40;79.66;99465.30;1752463;80;21274;-76
2021/03/07 02:13:36;;;;;;;5.12;1.87;;;;;;;0.38;79.38;99469.16;1752788;80;22210;-76
2021/03/07 02:16:13;;;;;;;6.33;2.10;;;;;;;0.38;79.45;99461.89;1748935;80;21289;-75
2021/03/07 02:18:42;;;;;;;5.75;1.60;;;;;;;0.38;79.44;99451.18;1744902;80;21633;-75
2021/03/07 02:21:17;;;;;;;5.53;1.45;;;;;;;0.40;79.67;99457.59;1750488;80;21210;-75
2021/03/07 02:24:08;;;;;;;7.70;2.30;;;;;;;0.41;79.32;99456.72;1747501;80;21210;-75
2021/03/07 02:26:46;;;;;;;4.85;1.55;;;;;;;0.42;79.53;99449.02;1746209;80;21226;-75
2021/03/07 02:29:14;;;;;;;10.23;2.10;;;;;;;0.43;79.90;99449.86;1748479;80;21187;-74
2021/03/07 02:31:52;;;;;;;5.80;1.85;;;;;;;0.39;79.80;99448.17;1746543;80;21183;-75
2021/03/07 02:34:38;;;;;;;5.17;2.02;;;;;;;0.39;79.73;99443.03;1746776;80;21379;-75
2021/03/07 02:37:09;;;;;;;7.40;2.00;;;;;;;0.39;79.71;99458.45;1750166;80;21250;-76
2021/03/07 02:39:40;;;;;;;6.80;2.10;;;;;;;0.41;79.67;99423.33;1721264;81;21401;-76
2021/03/07 02:46:37;;;;;;;5.75;1.90;;;;;;;0.45;79.88;99439.14;1769867;78;22126;-74
2021/03/07 02:49:08;;;;;;;4.12;1.50;;;;;;;0.39;80.00;99446.89;1754323;80;21033;-75
2021/03/07 02:51:38;;;;;;;6.15;1.65;;;;;;;0.38;80.11;99429.34;1760424;80;22623;-76
2021/03/07 02:54:08;;;;;;;5.20;1.52;;;;;;;0.40;80.06;99442.19;1767145;80;21057;-75
2021/03/07 02:56:57;;;;;;;5.08;1.60;;;;;;;0.39;80.09;99429.78;1768655;80;21015;-75
2021/03/07 02:59:28;;;;;;;5.28;1.90;;;;;;;0.42;79.98;99430.16;1774134;79;21003;-75
2021/03/07 03:02:02;;;;;;;4.62;1.77;;;;;;;0.42;79.91;99428.47;1745133;79;22339;-75
2021/03/07 03:04:34;;;;;;;4.58;1.55;;;;;;;0.42;80.21;99425.02;1774402;78;22041;-75
2021/03/07 03:07:04;;;;;;;6.03;1.80;;;;;;;0.41;80.98;99418.19;1776689;78;21642;-75
2021/03/07 03:09:34;;;;;;;5.50;1.60;;;;;;;0.40;80.11;99416.50;1783284;79;21655;-75
2021/03/07 03:12:03;;;;;;;6.15;2.30;;;;;;;0.38;80.09;99413.09;1782529;79;21219;-75
2021/03/07 03:14:31;;;;;;;7.33;2.52;;;;;;;0.38;80.00;99406.23;1773453;79;21288;-75
2021/03/07 03:17:00;;;;;;;6.30;2.37;;;;;;;0.38;80.04;99401.09;1766937;78;22910;-75
2021/03/07 03:19:31;;;;;;;6.87;2.40;;;;;;;0.39;80.34;99391.66;1781500;78;21144;-75
2021/03/07 03:21:59;;;;;;;5.70;2.17;;;;;;;0.37;80.02;99395.99;1778424;78;21580;-75
2021/03/07 03:24:26;;;;;;;4.92;2.10;;;;;;;0.37;80.21;99388.28;1784463;79;21215;-75
2021/03/07 03:27:05;;;;;;;4.15;2.15;;;;;;;0.37;80.09;99398.56;1780451;79;21072;-75
2021/03/07 03:29:33;;;;;;;7.87;2.67;;;;;;;0.36;80.55;99390.42;1776695;78;21667;-75
2021/03/07 03:32:01;;;;;;;10.18;3.20;;;;;;;0.33;80.36;99391.74;1778322;78;21220;-75
2021/03/07 03:34:28;;;;;;;6.05;2.40;;;;;;;0.32;80.30;99395.19;1780267;79;21168;-75
2021/03/07 03:36:55;;;;;;;6.75;2.55;;;;;;;0.32;80.67;99390.89;1784545;78;21044;-76
2021/03/07 03:39:25;;;;;;;9.10;3.00;;;;;;;0.34;80.42;99396.03;1769882;79;21186;-76
2021/03/07 03:42:05;;;;;;;6.92;2.15;;;;;;;0.34;80.48;99381.91;1774840;79;21580;-76
2021/03/07 03:44:39;;;;;;;5.40;2.02;;;;;;;0.34;80.93;99362.64;1775052;78;21671;-76
2021/03/07 03:47:13;;;;;;;7.30;2.15;;;;;;;0.33;80.75;99376.33;1780340;79;21186;-74
2021/03/07 03:49:53;;;;;;;6.08;2.30;;;;;;;0.33;80.73;99384.03;1775018;78;21209;-74
2021/03/07 03:52:22;;;;;;;8.33;2.40;;;;;;;0.33;80.98;99378.91;1774270;79;21194;-75
2021/03/07 03:55:00;;;;;;;6.97;2.55;;;;;;;0.30;80.99;99363.53;1777546;78;21162;-73
2021/03/07 03:57:31;;;;;;;8.05;2.50;;;;;;;0.29;80.77;99372.11;1774294;78;21051;-74
2021/03/07 04:00:03;;;;;;;5.97;2.58;;;;;;;0.28;81.41;99371.67;1771399;78;21580;-74
2021/03/07 04:02:32;;;;;;;4.50;2.00;;;;;;;0.26;80.84;99359.31;1773685;79;21846;-74
2021/03/07 04:05:04;;;;;;;9.33;3.20;;;;;;;0.26;81.06;99365.29;1778956;79;22552;-74
2021/03/07 04:07:32;;;;;;;7.75;2.98;;;;;;;0.27;80.92;99358.44;1778776;79;21245;-74
2021/03/07 04:10:01;;;;;;;8.43;2.80;;;;;;;0.26;81.01;99361.88;1773594;79;21174;-74
2021/03/07 04:12:29;;;;;;;4.03;2.22;;;;;;;0.26;81.23;99345.19;1784371;78;21698;-74
2021/03/07 04:14:57;;;;;;;3.65;2.08;;;;;;;0.25;81.68;99362.73;1782684;79;21695;-74
2021/03/07 04:17:26;;;;;;;12.95;3.37;;;;;;;0.27;81.57;99358.44;1777434;79;21191;-74
2021/03/07 04:19:54;;;;;;;5.72;2.65;;;;;;;0.28;81.35;99363.56;1772044;78;21183;-74
2021/03/07 04:22:22;;;;;;;7.37;2.72;;;;;;;0.30;81.10;99360.96;1774489;78;21633;-74
2021/03/07 04:24:49;;;;;;;;;;;;;;;0.32;81.21;99346.39;1776475;79;21136;-74
2021/03/07 04:27:17;;;;;;;8.05;2.60;;;;;;;0.33;81.52;99351.94;1779021;78;20371;-74
2021/03/07 04:29:44;;;;;;;7.55;2.17;;;;;;;0.33;81.52;99351.94;1780188;78;22553;-74
2021/03/07 04:32:12;;;;;;;6.15;2.50;;;;;;;0.33;81.58;99360.92;1778421;78;21751;-74
2021/03/07 04:34:40;;;;;;;7.10;2.75;;;;;;;0.33;81.69;99360.92;1777353;78;21135;-74
2021/03/07 04:37:07;;;;;;;3.65;2.05;;;;;;;0.34;81.33;99356.22;1779616;79;20997;-74
2021/03/07 04:39:34;;;;;;;5.47;1.82;;;;;;;0.34;81.55;99360.92;1782862;79;21092;-74
2021/03/07 04:42:03;;;;;;;5.37;1.82;;;;;;;0.34;81.67;99334.39;1777326;78;21181;-74
2021/03/07 04:44:31;;;;;;;6.47;2.33;;;;;;;0.35;81.47;99341.22;1780389;78;22724;-75
2021/03/07 04:46:58;;;;;;;7.12;2.42;;;;;;;0.36;81.58;99342.91;1770140;79;21251;-74
2021/03/07 04:49:25;;;;;;;7.15;2.95;;;;;;;0.39;81.43;99360.84;1779437;79;21602;-74
2021/03/07 04:51:52;;;;;;;6.25;2.10;;;;;;;0.40;81.43;99336.88;1783762;79;21037;-75
2021/03/07 04:54:19;;;;;;;6.20;1.95;;;;;;;0.42;81.73;99323.56;1777475;79;21197;-74
2021/03/07 04:56:46;;;;;;;4.58;1.95;;;;;;;0.40;81.63;99339.45;1782874;79;21837;-74
2021/03/07 04:59:13;;;;;;;9.80;2.65;;;;;;;0.40;81.56;99339.45;1777644;79;21199;-74
2021/03/07 05:01:40;;;;;;;7.08;2.00;;;;;;;0.40;81.62;99340.30;1752353;78;21091;-74
2021/03/07 05:04:07;;;;;;;7.58;2.52;;;;;;;0.42;81.61;99340.26;1778538;78;21121;-74
2021/03/07 05:06:38;;;;;;;8.10;2.47;;;;;;;0.44;81.52;99338.53;1769331;78;21213;-74
2021/03/07 05:09:04;;;;;;;5.40;2.30;;;;;;;0.44;82.40;99330.38;1768747;78;21639;-74
2021/03/07 05:11:31;;;;;;;4.97;1.80;;;;;;;0.44;81.70;99329.54;1779184;78;21648;-74
2021/03/07 05:13:58;;;;;;;7.40;2.52;;;;;;;0.46;81.68;99321.83;1780117;78;21183;-74
2021/03/07 05:16:25;;;;;;;6.83;2.08;;;;;;;0.46;81.68;99321.83;1777868;78;21175;-74
2021/03/07 05:18:52;;;;;;;8.88;1.77;;;;;;;0.46;81.66;99326.53;1775228;78;21163;-74
2021/03/07 05:21:19;;;;;;;7.17;2.15;;;;;;;0.47;81.70;99321.79;1752695;80;21315;-74
2021/03/07 05:23:47;;;;;;;3.62;1.62;;;;;;;0.47;81.84;99317.94;1758848;79;21222;-75
2021/03/07 05:26:14;;;;;;;5.28;2.17;;;;;;;0.46;81.88;99308.98;1751470;80;21161;-74
2021/03/07 05:28:41;;;;;;;9.35;2.12;;;;;;;0.44;82.11;99310.27;1756380;79;21663;-74
2021/03/07 05:31:08;;;;;;;5.22;1.70;;;;;;;0.41;81.92;99305.18;1741951;80;21625;-74
2021/03/07 05:33:35;;;;;;;4.97;2.05;;;;;;;0.42;81.85;99312.00;1740468;80;22290;-74
2021/03/07 05:36:03;;;;;;;6.10;1.90;;;;;;;0.44;81.90;99310.27;1742565;80;21218;-74
2021/03/07 05:38:29;;;;;;;;;;;;;;;0.45;81.97;99306.86;1743384;80;21113;-74
2021/03/07 05:40:56;;;;;;;4.35;1.35;;;;;;;0.45;82.71;99306.86;1744334;80;20301;-75
2021/03/07 05:43:24;;;;;;;4.95;2.25;;;;;;;0.44;82.15;99293.14;1741540;80;21588;-74
2021/03/07 05:45:52;;;;;;;4.67;2.65;;;;;;;0.45;82.26;99300.44;1741172;80;22094;-74
2021/03/07 05:48:19;;;;;;;6.30;3.02;;;;;;;0.43;82.14;99312.44;1742085;81;21079;-74
2021/03/07 05:50:46;;;;;;;5.62;2.30;;;;;;;0.43;82.42;99298.31;1714292;82;21718;-75
2021/03/07 05:53:13;;;;;;;5.62;1.70;;;;;;;0.44;82.40;99303.41;1765899;79;21185;-75
2021/03/07 05:55:42;;;;;;;3.80;1.37;;;;;;;0.44;82.66;99289.73;1753783;79;21204;-74
2021/03/07 05:58:09;;;;;;;5.45;2.12;;;;;;;0.44;82.56;99282.02;1756304;78;21424;-74
2021/03/07 06:00:36;;;;;;;9.13;2.83;;;;;;;0.44;82.84;99285.44;1744993;80;21081;-74
2021/03/07 06:03:04;;;;;;;7.22;2.27;;;;;;;0.42;82.63;99275.64;1743733;80;21104;-74
2021/03/07 06:05:33;;;;;;;4.08;1.62;;;;;;;0.44;82.56;99288.44;1736423;80;21066;-74
2021/03/07 06:08:01;;;;;;;5.37;1.60;;;;;;;0.43;82.56;99273.91;1739191;81;21171;-74
2021/03/07 06:10:30;;;;;;;4.00;1.87;;;;;;;0.46;82.49;99259.73;1739848;81;22149;-75
2021/03/07 06:13:10;;;;;;;7.22;2.50;;;;;;;0.47;82.55;99274.27;1729218;81;21167;-74
2021/03/07 06:15:40;;;;;;;4.95;2.17;;;;;;;0.48;82.51;99265.72;1719328;81;21071;-75
2021/03/07 06:18:20;;;;;;;3.42;1.60;;;;;;;0.48;82.52;99261.86;1708109;82;21170;-75
2021/03/07 06:20:50;;;;;;;6.20;2.27;;;;;;;0.50;82.56;99260.09;1720081;81;21041;-75
2021/03/07 06:23:18;;;;;;;5.47;1.90;;;;;;;0.50;82.49;99263.95;1718048;81;21174;-75
2021/03/07 06:25:51;;;;;;;3.75;1.70;;;;;;;0.51;82.59;99264.38;1699887;82;21874;-75
2021/03/07 06:28:26;;;;;;;5.80;2.12;;;;;;;0.51;82.78;99263.10;1699382;82;21771;-74
2021/03/07 06:30:54;;;;;;;4.03;2.02;;;;;;;0.54;82.68;99272.05;1704241;82;21192;-74
2021/03/07 06:33:32;;;;;;;5.45;2.65;;;;;;;0.53;82.58;99269.05;1726683;81;21642;-75
2021/03/07 06:36:23;;;;;;;;;;;;;;;0.53;82.70;99274.18;1709823;82;21814;-73
2021/03/07 06:39:00;;;;;;;4.45;1.72;;;;;;;0.55;82.76;99262.17;1717510;82;20149;-74
2021/03/07 06:41:30;;;;;;;;;;;;;;;0.54;82.86;99254.06;1716737;82;21194;-73
2021/03/07 06:44:13;;;;;;;7.47;2.33;;;;;;;0.55;82.91;99257.03;1701654;82;20312;-75
2021/03/07 06:46:46;;;;;;;5.37;2.10;;;;;;;0.55;82.87;99245.48;1702661;81;21203;-75
2021/03/07 06:49:27;;;;;;;5.83;2.08;;;;;;;0.56;82.82;99243.34;1695669;82;21205;-75
2021/03/07 06:52:00;;;;;;;3.50;1.90;;;;;;;0.58;82.90;99241.58;1721327;81;21186;-75
2021/03/07 06:54:28;;;;;;;3.58;1.42;;;;;;;0.59;83.01;99233.02;1691228;81;21218;-76
2021/03/07 06:56:55;;;;;;;4.87;1.80;;;;;;;0.62;82.89;99224.42;1709022;82;21195;-74
2021/03/07 06:59:25;;;;;;;4.30;1.62;;;;;;;0.65;82.93;99230.34;1713207;82;21247;-73
2021/03/07 07:01:55;;;;;;;4.37;1.82;;;;;;;0.68;82.94;99233.75;1689177;83;22368;-75
2021/03/07 07:04:25;;;;;;;4.17;2.25;;;;;;;0.69;82.99;99243.15;1696579;83;21064;-75
2021/03/07 07:07:25;;;;;;;5.53;2.00;;;;;;;0.66;82.90;99239.74;1681026;83;22147;-75
2021/03/07 07:10:03;;;;;;;2.52;1.60;;;;;;;0.65;83.00;99239.78;1686885;83;21241;-75
2021/03/07 07:12:31;;;;;;;5.40;2.00;;;;;;;0.63;83.04;99244.93;1685643;83;21210;-74
2021/03/07 07:15:17;;;;;;;3.10;1.75;;;;;;;0.62;83.12;99244.53;1690201;83;21730;-75
2021/03/07 07:17:44;;;;;;;5.78;2.12;;;;;;;0.64;83.23;99241.51;1688428;83;21330;-76
2021/03/07 07:20:13;;;;;;;9.70;3.50;;;;;;;0.66;83.19;99233.32;1686335;83;21247;-75
2021/03/07 07:22:40;;;;;;;4.08;1.45;;;;;;;0.67;83.21;99234.16;1690570;83;21146;-74
2021/03/07 07:25:09;;;;;;;6.70;2.60;;;;;;;0.68;83.41;99227.33;1688153;83;21226;-75
2021/03/07 07:27:36;;;;;;;4.80;1.90;;;;;;;0.69;83.15;99234.16;1660673;83;21221;-75
2021/03/07 07:30:05;;;;;;;4.28;2.10;;;;;;;0.71;83.26;99223.42;1687181;83;21145;-75
2021/03/07 07:32:43;;;;;;;3.85;2.20;;;;;;;0.72;83.24;99218.25;1685712;83;21185;-75
2021/03/07 07:35:20;;;;;;;6.97;2.25;;;;;;;0.76;83.27;99213.93;1691397;83;21201;-75
2021/03/07 07:38:01;;;;;;;;;;;;;;;0.79;83.27;99212.59;1656029;85;21693;-76
2021/03/07 07:40:43;;;;;;;6.35;2.30;;;;;;;0.81;83.29;99220.70;1679924;84;21222;-74
2021/03/07 07:43:12;;;;;;;6.45;2.33;;;;;;;0.83;83.23;99207.80;1655132;85;21237;-73
2021/03/07 07:45:39;;;;;;;3.50;1.70;;;;;;;0.89;83.29;99200.83;1679729;84;21242;-74
2021/03/07 07:48:07;;;;;;;;;;;;;;;0.94;83.18;99185.78;1682971;84;21230;-74
2021/03/07 07:50:37;;;;;;;3.45;1.70;;;;;;;0.96;83.23;99191.31;1684881;84;20438;-75
2021/03/07 07:53:15;;;;;;;4.35;1.85;;;;;;;0.99;83.41;99180.98;1681519;84;21418;-75
2021/03/07 07:56:00;;;;;;;2.98;1.52;;;;;;;0.97;83.15;99181.43;1683053;83;21248;-76
2021/03/07 07:58:42;;;;;;;2.33;1.40;;;;;;;0.96;83.12;99183.60;1682661;84;21242;-74
2021/03/07 08:01:13;;;;;;;2.58;1.35;;;;;;;0.96;83.19;99175.89;1680050;83;21044;-73
2021/03/07 08:03:45;;;;;;;4.78;1.50;;;;;;;0.96;83.25;99183.60;1683836;83;21153;-74
2021/03/07 08:06:30;;;;;;;2.15;1.42;;;;;;;0.97;83.26;99173.72;1658242;85;22386;-74
2021/03/07 08:08:58;;;;;;;3.35;1.40;;;;;;;0.97;83.22;99176.73;1687350;82;21695;-74
2021/03/07 08:11:30;;;;;;;2.55;1.17;;;;;;;0.99;83.41;99178.41;1675940;84;21610;-74
2021/03/07 08:14:02;;;;;;;2.22;1.50;;;;;;;1.00;83.30;99174.95;1655221;84;21211;-73
2021/03/07 08:16:42;;;;;;;3.20;1.60;;;;;;;1.02;83.40;99182.20;1685171;83;21226;-74
2021/03/07 08:19:13;;;;;;;3.58;1.40;;;;;;;1.02;83.31;99175.78;1654812;85;22165;-73
2021/03/07 08:22:00;;;;;;;3.70;1.45;;;;;;;1.08;83.38;99175.66;1623672;86;21970;-73
2021/03/07 08:24:56;;;;;;;2.60;1.30;;;;;;;1.09;83.30;99172.24;1612022;87;21244;-73
2021/03/07 08:27:36;;;;;;;2.37;1.35;;;;;;;1.16;83.55;99130.98;1775429;78;23429;-72
2021/03/07 08:30:07;;;;;;;1.37;0.95;;;;;;;1.07;83.35;99171.41;1758024;80;21028;-73
2021/03/07 08:32:43;;;;;;;2.83;1.20;;;;;;;1.08;83.41;99162.81;1752469;80;22343;-73
2021/03/07 08:35:35;;;;;;;3.25;1.50;;;;;;;1.10;83.37;99153.36;1752510;80;21002;-74
2021/03/07 08:38:16;;;;;;;2.98;1.47;;;;;;;1.11;83.39;99166.61;1778404;78;21056;-73
2021/03/07 08:40:54;;;;;;;3.62;2.00;;;;;;;1.11;83.37;99157.61;1779242;78;21634;-74
2021/03/07 08:43:29;;;;;;;;;;;;;;;1.15;83.42;99152.41;1778495;78;21627;-73
2021/03/07 08:46:14;;;;;;;4.15;1.60;;;;;;;1.18;83.49;99153.67;1772842;78;21217;-73
2021/03/07 08:48:47;;;;;;;4.20;2.12;;;;;;;1.20;83.51;99150.61;1774559;78;21066;-73
2021/03/07 08:51:17;;;;;;;3.30;1.75;;;;;;;1.20;83.60;99143.73;1774833;78;21032;-74
2021/03/07 08:53:46;;;;;;;3.50;1.40;;;;;;;1.22;83.56;99141.98;1775320;78;20957;-73
2021/03/07 08:56:14;;;;;;;2.20;1.10;;;;;;;1.24;83.46;99139.41;1779666;78;21052;-73
2021/03/07 08:58:46;;;;;;;3.45;1.00;;;;;;;1.25;83.54;99148.80;1777017;78;22519;-73
2021/03/07 09:01:14;;;;;;;1.85;1.10;;;;;;;1.26;83.55;99132.48;1714177;81;21017;-73
2021/03/07 09:03:42;;;;;;;1.72;1.15;;;;;;;1.26;83.56;99140.20;1741264;80;21398;-74
2021/03/07 09:06:13;;;;;;;1.45;1.05;;;;;;;1.25;83.53;99143.66;1734947;80;21215;-74
2021/03/07 09:08:40;;;;;;;4.30;1.40;;;;;;;1.23;83.53;99138.56;1715661;81;21208;-73
2021/03/07 09:11:09;;;;;;;2.67;1.30;;;;;;;1.25;83.54;99138.52;1719403;81;22386;-74
2021/03/07 09:13:49;;;;;;;2.27;1.10;;;;;;;1.25;83.61;99136.79;1713827;81;21056;-74
2021/03/07 09:16:17;;;;;;;1.32;1.20;;;;;;;1.28;83.62;99137.17;1718647;81;21789;-74
2021/03/07 09:18:45;;;;;;;2.72;1.70;;;;;;;1.23;83.56;99129.98;1718764;81;21056;-74
2021/03/07 09:21:15;;;;;;;4.53;1.87;;;;;;;1.23;83.67;99119.69;1718692;81;22115;-74
2021/03/07 09:23:46;;;;;;;1.80;1.12;;;;;;;1.25;83.74;99128.23;1709676;81;21215;-74
2021/03/07 09:26:20;;;;;;;2.17;1.10;;;;;;;1.30;83.82;99126.42;1715760;81;21042;-74
2021/03/07 09:28:53;;;;;;;2.40;1.17;;;;;;;1.33;83.69;99116.08;1740303;80;21653;-74
2021/03/07 09:31:24;;;;;;;4.12;1.67;;;;;;;1.34;83.67;99112.61;1714513;81;21141;-74
2021/03/07 09:33:54;;;;;;;3.52;1.40;;;;;;;1.35;83.75;99116.91;1736471;80;21243;-74
2021/03/07 09:36:31;;;;;;;1.45;1.05;;;;;;;1.38;83.67;99111.69;1741072;80;21205;-74
2021/03/07 09:39:03;;;;;;;2.52;1.17;;;;;;;1.40;83.75;99109.95;1713179;81;21252;-74
2021/03/07 09:41:40;;;;;;;3.25;1.27;;;;;;;1.39;83.75;99122.38;1713696;81;21681;-74
2021/03/07 09:44:22;;;;;;;2.70;1.10;;;;;;;1.39;83.80;99121.09;1717210;82;21206;-74
2021/03/07 09:46:53;;;;;;;3.45;1.27;;;;;;;1.40;83.75;99120.23;1699691;81;21228;-74
2021/03/07 09:49:24;;;;;;;1.57;0.90;;;;;;;1.43;83.77;99117.59;1711409;82;21274;-74
2021/03/07 09:51:53;;;;;;;2.87;1.77;;;;;;;1.41;83.69;99115.48;1715121;81;21255;-74
2021/03/07 09:54:21;;;;;;;3.75;1.02;;;;;;;1.38;83.66;99111.69;1713669;81;21305;-72
2021/03/07 09:56:52;;;;;;;4.15;1.30;;;;;;;1.34;83.68;99112.61;1718181;81;21676;-73
2021/03/07 09:59:26;;;;;;;1.52;1.07;;;;;;;1.28;83.67;99110.16;1719039;81;21188;-74
2021/03/07 10:02:05;;;;;;;2.05;1.27;;;;;;;1.26;83.82;99114.48;1717719;82;21487;-73
2021/03/07 10:04:42;;;;;;;3.12;1.52;;;;;;;1.25;83.89;99097.37;1722132;81;21002;-74
2021/03/07 10:07:19;;;;;;;2.52;1.10;;;;;;;1.26;83.94;99109.34;1711914;81;21122;-72
2021/03/07 10:10:14;;;;;;;2.62;1.57;;;;;;;1.27;84.01;99113.62;1699737;83;21187;-72
2021/03/07 10:12:57;;;;;;;2.35;1.50;;;;;;;1.32;84.16;99106.67;1767501;78;23038;-72
2021/03/07 10:15:35;;;;;;;2.90;1.60;;;;;;;1.27;84.04;99113.62;1772572;80;21049;-72
2021/03/07 10:18:18;;;;;;;4.15;1.65;;;;;;;1.25;83.95;99107.66;1738092;81;21260;-73
2021/03/07 10:20:49;;;;;;;1.70;1.10;;;;;;;1.24;83.95;99109.83;1721396;82;21074;-73
2021/03/07 10:23:17;;;;;;;3.80;1.15;;;;;;;1.23;84.05;99114.55;1716019;82;21665;-73
2021/03/07 10:25:48;;;;;;;5.30;1.65;;;;;;;1.19;83.93;99105.20;1721557;82;21020;-73
2021/03/07 10:28:24;;;;;;;2.20;1.67;;;;;;;1.19;83.96;99107.78;1721986;82;21082;-73
2021/03/07 10:30:54;;;;;;;5.75;1.98;;;;;;;1.19;84.00;99112.92;1716158;82;22171;-72
2021/03/07 10:33:30;;;;;;;2.25;1.50;;;;;;;1.18;84.02;99096.66;1716453;82;21284;-73
2021/03/07 10:36:12;;;;;;;4.25;1.77;;;;;;;1.18;84.05;99109.52;1717563;82;21637;-73
2021/03/07 10:39:11;;;;;;;3.45;1.65;;;;;;;1.20;84.11;99111.59;1717543;82;21433;-73
2021/03/07 10:41:38;;;;;;;3.15;2.08;;;;;;;1.24;84.04;99104.69;1636966;85;21245;-73
2021/03/07 10:44:08;;;;;;;2.95;2.00;;;;;;;1.25;83.98;99096.08;1638499;85;21368;-73
2021/03/07 10:46:44;;;;;;;3.37;1.20;;;;;;;1.30;84.02;99092.98;1636351;85;21258;-72
2021/03/07 10:49:11;;;;;;;3.05;1.40;;;;;;;1.29;83.96;99101.59;1636092;85;21231;-73
2021/03/07 10:51:39;;;;;;;2.90;1.22;;;;;;;1.25;83.88;99103.80;1636554;85;21694;-72
2021/03/07 10:54:07;;;;;;;3.77;1.10;;;;;;;1.21;83.86;99103.47;1639934;85;21287;-74
2021/03/07 10:56:43;;;;;;;4.70;1.60;;;;;;;1.19;83.89;99109.06;1638432;84;21395;-70
2021/03/07 10:59:10;;;;;;;5.90;2.40;;;;;;;1.15;83.90;99107.41;1635154;85;21236;-72
2021/03/07 11:01:40;;;;;;;2.40;1.50;;;;;;;1.14;84.01;99103.16;1639527;85;21694;-73
2021/03/07 11:04:07;;;;;;;4.95;1.50;;;;;;;1.15;84.10;99109.98;1640808;85;21663;-73
2021/03/07 11:06:35;;;;;;;3.67;1.75;;;;;;;1.06;84.11;99096.42;1619522;87;21758;-72
2021/03/07 11:09:03;;;;;;;3.37;1.47;;;;;;;0.99;84.51;99117.99;1611698;87;21260;-75
2021/03/07 11:14:02;;;;;;;4.85;2.33;;;;;;;0.90;84.92;99109.17;1830098;76;22546;-72
2021/03/07 11:16:30;;;;;;;7.85;3.33;;;;;;;0.86;84.54;99115.22;1806350;77;21099;-72
2021/03/07 11:18:57;;;;;;;5.17;2.02;;;;;;;0.84;84.64;99116.97;1740776;80;21272;-71
2021/03/07 11:21:24;;;;;;;6.83;2.00;;;;;;;0.84;85.02;99104.98;1743125;80;21198;-72
2021/03/07 11:23:51;;;;;;;3.40;1.65;;;;;;;0.92;85.01;99102.26;1742576;80;21652;-71
2021/03/07 11:28:45;;;;;;;7.12;1.65;;;;;;;1.15;84.85;99113.42;1824784;77;22846;-72
2021/03/07 11:31:13;;;;;;;2.55;1.50;;;;;;;1.16;84.71;99111.70;1808159;78;21558;-71
2021/03/07 11:33:40;;;;;;;4.58;1.55;;;;;;;1.19;84.62;99105.20;1807464;78;21251;-71
2021/03/07 11:36:28;;;;;;;5.72;1.40;;;;;;;1.17;84.64;99112.09;1804202;78;21080;-73
2021/03/07 11:38:56;;;;;;;3.70;1.50;;;;;;;1.22;84.68;99115.44;1654831;84;21562;-72
2021/03/07 11:41:23;;;;;;;2.08;1.02;;;;;;;1.34;84.66;99112.61;1652892;84;21065;-72
2021/03/07 11:43:50;;;;;;;3.35;1.35;;;;;;;1.41;84.72;99109.05;1662038;84;21053;-73
2021/03/07 11:46:17;;;;;;;3.92;1.57;;;;;;;1.41;84.58;99106.48;1650703;84;21622;-72
2021/03/07 11:48:44;;;;;;;4.03;1.27;;;;;;;1.46;84.62;99099.52;1649743;84;21151;-74
2021/03/07 11:51:11;;;;;;;3.42;1.45;;;;;;;1.51;84.61;99100.28;1653181;84;21652;-76
2021/03/07 11:53:38;;;;;;;2.27;1.50;;;;;;;1.47;84.44;99113.23;1656467;84;21246;-75
2021/03/07 11:56:06;;;;;;;2.17;1.37;;;;;;;1.36;84.38;99108.30;1651020;84;21164;-76
2021/03/07 11:58:32;;;;;;;;;;;;;;;1.30;84.52;99118.70;1649310;84;21392;-76
2021/03/07 12:01:00;;;;;;;2.85;1.40;;;;;;;1.20;84.46;99119.75;1639337;84;20206;-76
2021/03/07 12:03:27;;;;;;;2.10;1.02;;;;;;;1.13;84.57;99110.47;1647095;84;21219;-76
2021/03/07 12:05:55;;;;;;;4.08;1.27;;;;;;;1.09;84.64;99118.25;1652608;84;21081;-75
2021/03/07 12:08:23;;;;;;;2.77;1.20;;;;;;;1.01;84.66;99113.68;1645508;84;21194;-75
2021/03/07 12:10:50;;;;;;;2.77;1.70;;;;;;;0.90;84.70;99127.16;1649693;84;21785;-75
2021/03/07 12:13:17;;;;;;;3.00;1.50;;;;;;;0.76;84.61;99120.13;1645267;84;21270;-75
2021/03/07 12:15:44;;;;;;;3.47;1.67;;;;;;;0.72;84.62;99127.47;1655705;84;21030;-75
2021/03/07 12:18:10;;;;;;;2.83;1.77;;;;;;;0.66;84.58;99122.84;1619510;86;21502;-76